sensor_id;sensor_type;location;lat;lon;timestamp;temperature;humidity
3380;DHT22;1703;51.964;7.642;2023-10-19T00:01:49;11.40;99.90
3380;DHT22;1703;51.964;7.642;2023-10-19T00:04:15;11.40;99.90
3380;DHT22;1703;51.964;7.642;2023-10-19T00:06:42;11.30;99.90
3380;DHT22;1703;51.964;7.642;2023-10-19T00:09:10;11.30;99.90
3380;DHT22;1703;51.964;7.642;2023-10-19T00:11:37;11.30;99.90
3380;DHT22;1703;51.964;7.642;2023-10-19T00:14:06;11.40;99.90
3380;DHT22;1703;51.964;7.642;2023-10-19T00:16:42;11.40;99.90
3380;DHT22;1703;51.964;7.642;2023-10-19T00:19:11;11.30;99.90
3380;DHT22;1703;51.964;7.642;2023-10-19T00:21:44;11.30;99.90
3380;DHT22;1703;51.964;7.642;2023-10-19T00:24:17;11.30;99.90
3380;DHT22;1703;51.964;7.642;2023-10-19T00:26:45;11.30;99.90
3380;DHT22;1703;51.964;7.642;2023-10-19T00:29:13;11.30;99.90
3380;DHT22;1703;51.964;7.642;2023-10-19T00:31:56;11.20;99.90
3380;DHT22;1703;51.964;7.642;2023-10-19T00:34:27;11.30;99.90
3380;DHT22;1703;51.964;7.642;2023-10-19T00:36:54;11.30;99.90
3380;DHT22;1703;51.964;7.642;2023-10-19T00:39:23;11.30;99.90
3380;DHT22;1703;51.964;7.642;2023-10-19T00:41:53;11.20;99.90
3380;DHT22;1703;51.964;7.642;2023-10-19T00:44:23;11.20;99.90
3380;DHT22;1703;51.964;7.642;2023-10-19T00:47:01;11.20;99.90
3380;DHT22;1703;51.964;7.642;2023-10-19T00:49:31;11.20;99.90
3380;DHT22;1703;51.964;7.642;2023-10-19T00:51:59;11.20;99.90
3380;DHT22;1703;51.964;7.642;2023-10-19T00:54:30;11.30;99.90
3380;DHT22;1703;51.964;7.642;2023-10-19T00:56:59;11.30;99.90
3380;DHT22;1703;51.964;7.642;2023-10-19T00:59:30;11.20;99.90
3380;DHT22;1703;51.964;7.642;2023-10-19T01:02:00;11.20;99.90
3380;DHT22;1703;51.964;7.642;2023-10-19T01:04:43;11.20;99.90
3380;DHT22;1703;51.964;7.642;2023-10-19T01:07:16;11.30;99.90
3380;DHT22;1703;51.964;7.642;2023-10-19T01:09:47;11.30;99.90
3380;DHT22;1703;51.964;7.642;2023-10-19T01:12:19;11.30;99.90
3380;DHT22;1703;51.964;7.642;2023-10-19T01:15:03;11.40;99.90
3380;DHT22;1703;51.964;7.642;2023-10-19T01:17:31;11.30;99.90
3380;DHT22;1703;51.964;7.642;2023-10-19T01:20:01;11.20;99.90
3380;DHT22;1703;51.964;7.642;2023-10-19T01:22:37;11.20;99.90
3380;DHT22;1703;51.964;7.642;2023-10-19T01:25:06;11.20;99.90
3380;DHT22;1703;51.964;7.642;2023-10-19T01:27:36;11.20;99.90
3380;DHT22;1703;51.964;7.642;2023-10-19T01:30:05;11.20;99.90
3380;DHT22;1703;51.964;7.642;2023-10-19T01:32:34;11.20;99.90
3380;DHT22;1703;51.964;7.642;2023-10-19T01:35:01;11.20;99.90
3380;DHT22;1703;51.964;7.642;2023-10-19T01:37:28;11.10;99.90
3380;DHT22;1703;51.964;7.642;2023-10-19T01:39:55;11.10;99.90
3380;DHT22;1703;51.964;7.642;2023-10-19T01:42:23;11.10;99.90
3380;DHT22;1703;51.964;7.642;2023-10-19T01:44:51;11.10;99.90
3380;DHT22;1703;51.964;7.642;2023-10-19T01:47:17;11.10;99.90
3380;DHT22;1703;51.964;7.642;2023-10-19T01:49:45;11.20;99.90
3380;DHT22;1703;51.964;7.642;2023-10-19T01:52:17;11.20;99.90
3380;DHT22;1703;51.964;7.642;2023-10-19T01:54:44;11.20;99.90
3380;DHT22;1703;51.964;7.642;2023-10-19T01:57:10;11.20;99.90
3380;DHT22;1703;51.964;7.642;2023-10-19T01:59:39;11.20;99.90
3380;DHT22;1703;51.964;7.642;2023-10-19T02:02:05;11.30;99.90
3380;DHT22;1703;51.964;7.642;2023-10-19T02:04:35;11.30;99.90
3380;DHT22;1703;51.964;7.642;2023-10-19T02:07:01;11.30;99.90
3380;DHT22;1703;51.964;7.642;2023-10-19T02:09:28;11.40;99.90
3380;DHT22;1703;51.964;7.642;2023-10-19T02:11:57;11.40;99.90
3380;DHT22;1703;51.964;7.642;2023-10-19T02:14:26;11.30;99.90
3380;DHT22;1703;51.964;7.642;2023-10-19T02:16:57;11.30;99.90
3380;DHT22;1703;51.964;7.642;2023-10-19T02:19:25;11.20;99.90
3380;DHT22;1703;51.964;7.642;2023-10-19T02:21:52;11.30;99.90
3380;DHT22;1703;51.964;7.642;2023-10-19T02:24:20;11.30;99.90
3380;DHT22;1703;51.964;7.642;2023-10-19T02:26:49;11.30;99.90
3380;DHT22;1703;51.964;7.642;2023-10-19T02:29:17;11.30;99.90
3380;DHT22;1703;51.964;7.642;2023-10-19T02:31:45;11.30;99.90
3380;DHT22;1703;51.964;7.642;2023-10-19T02:34:13;11.40;99.90
3380;DHT22;1703;51.964;7.642;2023-10-19T02:36:41;11.50;99.90
3380;DHT22;1703;51.964;7.642;2023-10-19T02:39:09;11.40;99.90
3380;DHT22;1703;51.964;7.642;2023-10-19T02:41:38;11.40;99.90
3380;DHT22;1703;51.964;7.642;2023-10-19T02:44:08;11.40;99.90
3380;DHT22;1703;51.964;7.642;2023-10-19T02:46:35;11.40;99.90
3380;DHT22;1703;51.964;7.642;2023-10-19T02:49:05;11.40;99.90
3380;DHT22;1703;51.964;7.642;2023-10-19T02:51:38;11.40;99.90
3380;DHT22;1703;51.964;7.642;2023-10-19T02:54:07;11.40;99.90
3380;DHT22;1703;51.964;7.642;2023-10-19T02:56:34;11.40;99.90
3380;DHT22;1703;51.964;7.642;2023-10-19T02:59:02;11.40;99.90
3380;DHT22;1703;51.964;7.642;2023-10-19T03:01:30;11.40;99.90
3380;DHT22;1703;51.964;7.642;2023-10-19T03:04:00;11.40;99.90
3380;DHT22;1703;51.964;7.642;2023-10-19T03:06:27;11.40;99.90
3380;DHT22;1703;51.964;7.642;2023-10-19T03:08:59;11.50;99.90
3380;DHT22;1703;51.964;7.642;2023-10-19T03:11:27;11.60;99.90
3380;DHT22;1703;51.964;7.642;2023-10-19T03:13:54;11.60;99.90
3380;DHT22;1703;51.964;7.642;2023-10-19T03:16:21;11.50;99.90
3380;DHT22;1703;51.964;7.642;2023-10-19T03:18:49;11.60;99.90
3380;DHT22;1703;51.964;7.642;2023-10-19T03:21:16;11.60;99.90
3380;DHT22;1703;51.964;7.642;2023-10-19T03:23:45;11.60;99.90
3380;DHT22;1703;51.964;7.642;2023-10-19T03:26:12;11.60;99.90
3380;DHT22;1703;51.964;7.642;2023-10-19T03:28:57;11.60;99.90
3380;DHT22;1703;51.964;7.642;2023-10-19T03:31:28;11.60;99.90
3380;DHT22;1703;51.964;7.642;2023-10-19T03:33:55;11.60;99.90
3380;DHT22;1703;51.964;7.642;2023-10-19T03:36:23;11.60;99.90
3380;DHT22;1703;51.964;7.642;2023-10-19T03:38:50;11.60;99.90
3380;DHT22;1703;51.964;7.642;2023-10-19T03:41:20;11.60;99.90
3380;DHT22;1703;51.964;7.642;2023-10-19T03:43:53;11.60;99.90
3380;DHT22;1703;51.964;7.642;2023-10-19T03:46:22;11.70;99.90
3380;DHT22;1703;51.964;7.642;2023-10-19T03:48:55;11.70;99.90
3380;DHT22;1703;51.964;7.642;2023-10-19T03:51:25;11.70;99.90
3380;DHT22;1703;51.964;7.642;2023-10-19T03:53:52;11.70;99.90
3380;DHT22;1703;51.964;7.642;2023-10-19T03:56:22;11.70;99.90
3380;DHT22;1703;51.964;7.642;2023-10-19T03:58:50;11.70;99.90
3380;DHT22;1703;51.964;7.642;2023-10-19T04:01:17;11.70;99.90
3380;DHT22;1703;51.964;7.642;2023-10-19T04:03:45;11.70;99.90
3380;DHT22;1703;51.964;7.642;2023-10-19T04:06:12;11.70;99.90
3380;DHT22;1703;51.964;7.642;2023-10-19T04:08:40;11.70;99.90
3380;DHT22;1703;51.964;7.642;2023-10-19T04:11:10;11.80;99.90
3380;DHT22;1703;51.964;7.642;2023-10-19T04:13:49;11.80;99.90
3380;DHT22;1703;51.964;7.642;2023-10-19T04:16:20;11.80;99.90
3380;DHT22;1703;51.964;7.642;2023-10-19T04:18:47;11.90;99.90
3380;DHT22;1703;51.964;7.642;2023-10-19T04:21:15;11.80;99.90
3380;DHT22;1703;51.964;7.642;2023-10-19T04:23:42;11.80;99.90
3380;DHT22;1703;51.964;7.642;2023-10-19T04:26:09;11.90;99.90
3380;DHT22;1703;51.964;7.642;2023-10-19T04:28:39;11.90;99.90
3380;DHT22;1703;51.964;7.642;2023-10-19T04:31:12;11.90;99.90
3380;DHT22;1703;51.964;7.642;2023-10-19T04:33:43;11.90;99.90
3380;DHT22;1703;51.964;7.642;2023-10-19T04:36:16;11.90;99.90
3380;DHT22;1703;51.964;7.642;2023-10-19T04:38:47;11.90;99.90
3380;DHT22;1703;51.964;7.642;2023-10-19T04:41:13;11.90;99.90
3380;DHT22;1703;51.964;7.642;2023-10-19T04:43:40;11.90;99.90
3380;DHT22;1703;51.964;7.642;2023-10-19T04:46:13;12.00;99.90
3380;DHT22;1703;51.964;7.642;2023-10-19T04:48:41;12.00;99.90
3380;DHT22;1703;51.964;7.642;2023-10-19T04:51:08;12.00;99.90
3380;DHT22;1703;51.964;7.642;2023-10-19T04:53:36;12.00;99.90
3380;DHT22;1703;51.964;7.642;2023-10-19T04:56:03;12.10;99.90
3380;DHT22;1703;51.964;7.642;2023-10-19T04:58:30;12.10;99.90
3380;DHT22;1703;51.964;7.642;2023-10-19T05:00:57;12.10;99.90
3380;DHT22;1703;51.964;7.642;2023-10-19T05:03:26;12.10;99.90
3380;DHT22;1703;51.964;7.642;2023-10-19T05:05:54;12.10;99.90
3380;DHT22;1703;51.964;7.642;2023-10-19T05:08:22;12.00;99.90
3380;DHT22;1703;51.964;7.642;2023-10-19T05:10:51;12.10;99.90
3380;DHT22;1703;51.964;7.642;2023-10-19T05:13:19;12.10;99.90
3380;DHT22;1703;51.964;7.642;2023-10-19T05:15:46;12.10;99.90
3380;DHT22;1703;51.964;7.642;2023-10-19T05:18:13;12.10;99.90
3380;DHT22;1703;51.964;7.642;2023-10-19T05:20:41;12.10;99.90
3380;DHT22;1703;51.964;7.642;2023-10-19T05:23:09;12.10;99.90
3380;DHT22;1703;51.964;7.642;2023-10-19T05:25:36;12.10;99.90
3380;DHT22;1703;51.964;7.642;2023-10-19T05:28:04;12.10;99.90
3380;DHT22;1703;51.964;7.642;2023-10-19T05:30:31;12.10;99.90
3380;DHT22;1703;51.964;7.642;2023-10-19T05:32:58;12.10;99.90
3380;DHT22;1703;51.964;7.642;2023-10-19T05:35:27;12.10;99.90
3380;DHT22;1703;51.964;7.642;2023-10-19T05:37:56;12.10;99.90
3380;DHT22;1703;51.964;7.642;2023-10-19T05:40:23;12.10;99.90
3380;DHT22;1703;51.964;7.642;2023-10-19T05:42:55;12.10;99.90
3380;DHT22;1703;51.964;7.642;2023-10-19T05:45:23;12.20;99.90
3380;DHT22;1703;51.964;7.642;2023-10-19T05:47:50;12.20;99.90
3380;DHT22;1703;51.964;7.642;2023-10-19T05:50:17;12.20;99.90
3380;DHT22;1703;51.964;7.642;2023-10-19T05:52:44;12.20;99.90
3380;DHT22;1703;51.964;7.642;2023-10-19T05:55:12;12.20;99.90
3380;DHT22;1703;51.964;7.642;2023-10-19T05:57:39;12.30;99.90
3380;DHT22;1703;51.964;7.642;2023-10-19T06:00:08;12.30;99.90
3380;DHT22;1703;51.964;7.642;2023-10-19T06:02:39;12.30;99.90
3380;DHT22;1703;51.964;7.642;2023-10-19T06:05:06;12.30;99.90
3380;DHT22;1703;51.964;7.642;2023-10-19T06:07:33;12.40;99.90
3380;DHT22;1703;51.964;7.642;2023-10-19T06:10:00;12.30;99.90
3380;DHT22;1703;51.964;7.642;2023-10-19T06:12:31;12.30;99.90
3380;DHT22;1703;51.964;7.642;2023-10-19T06:14:59;12.30;99.90
3380;DHT22;1703;51.964;7.642;2023-10-19T06:17:26;12.30;99.90
3380;DHT22;1703;51.964;7.642;2023-10-19T06:19:54;12.40;99.90
3380;DHT22;1703;51.964;7.642;2023-10-19T06:22:21;12.30;99.90
3380;DHT22;1703;51.964;7.642;2023-10-19T06:24:48;12.30;99.90
3380;DHT22;1703;51.964;7.642;2023-10-19T06:27:15;12.40;99.90
3380;DHT22;1703;51.964;7.642;2023-10-19T06:29:43;12.40;99.90
3380;DHT22;1703;51.964;7.642;2023-10-19T06:32:10;12.40;99.90
3380;DHT22;1703;51.964;7.642;2023-10-19T06:34:38;12.50;99.90
3380;DHT22;1703;51.964;7.642;2023-10-19T06:37:05;12.50;99.90
3380;DHT22;1703;51.964;7.642;2023-10-19T06:39:36;12.50;99.90
3380;DHT22;1703;51.964;7.642;2023-10-19T06:42:06;12.50;99.90
3380;DHT22;1703;51.964;7.642;2023-10-19T06:44:35;12.50;99.90
3380;DHT22;1703;51.964;7.642;2023-10-19T06:47:04;12.50;99.90
3380;DHT22;1703;51.964;7.642;2023-10-19T06:49:32;12.60;99.90
3380;DHT22;1703;51.964;7.642;2023-10-19T06:52:00;12.60;99.90
3380;DHT22;1703;51.964;7.642;2023-10-19T06:54:30;12.60;99.90
3380;DHT22;1703;51.964;7.642;2023-10-19T06:56:57;12.70;99.90
3380;DHT22;1703;51.964;7.642;2023-10-19T06:59:24;12.70;99.90
3380;DHT22;1703;51.964;7.642;2023-10-19T07:01:51;12.70;99.90
3380;DHT22;1703;51.964;7.642;2023-10-19T07:04:19;12.80;99.90
3380;DHT22;1703;51.964;7.642;2023-10-19T07:06:46;12.80;99.90
3380;DHT22;1703;51.964;7.642;2023-10-19T07:09:13;12.80;99.90
3380;DHT22;1703;51.964;7.642;2023-10-19T07:11:40;12.90;99.90
3380;DHT22;1703;51.964;7.642;2023-10-19T07:14:10;12.90;99.90
3380;DHT22;1703;51.964;7.642;2023-10-19T07:16:39;12.90;99.90
3380;DHT22;1703;51.964;7.642;2023-10-19T07:19:06;12.90;99.90
3380;DHT22;1703;51.964;7.642;2023-10-19T07:21:36;12.90;99.90
3380;DHT22;1703;51.964;7.642;2023-10-19T07:24:08;12.90;99.90
3380;DHT22;1703;51.964;7.642;2023-10-19T07:26:36;13.00;99.90
3380;DHT22;1703;51.964;7.642;2023-10-19T07:29:09;13.00;99.90
3380;DHT22;1703;51.964;7.642;2023-10-19T07:31:40;13.00;99.90
3380;DHT22;1703;51.964;7.642;2023-10-19T07:34:07;13.10;99.90
3380;DHT22;1703;51.964;7.642;2023-10-19T07:36:39;13.10;99.90
3380;DHT22;1703;51.964;7.642;2023-10-19T07:39:08;13.10;99.90
3380;DHT22;1703;51.964;7.642;2023-10-19T07:41:39;13.10;99.90
3380;DHT22;1703;51.964;7.642;2023-10-19T07:44:06;13.20;99.90
3380;DHT22;1703;51.964;7.642;2023-10-19T07:46:33;13.20;99.90
3380;DHT22;1703;51.964;7.642;2023-10-19T07:49:00;13.20;99.90
3380;DHT22;1703;51.964;7.642;2023-10-19T07:51:28;13.30;99.90
3380;DHT22;1703;51.964;7.642;2023-10-19T07:53:57;13.30;99.90
3380;DHT22;1703;51.964;7.642;2023-10-19T07:56:24;13.30;99.90
3380;DHT22;1703;51.964;7.642;2023-10-19T07:58:51;13.30;99.90
3380;DHT22;1703;51.964;7.642;2023-10-19T08:01:17;13.40;99.90
3380;DHT22;1703;51.964;7.642;2023-10-19T08:03:44;13.40;99.90
3380;DHT22;1703;51.964;7.642;2023-10-19T08:06:11;13.40;99.90
3380;DHT22;1703;51.964;7.642;2023-10-19T08:08:38;13.50;99.90
3380;DHT22;1703;51.964;7.642;2023-10-19T08:11:06;13.50;99.90
3380;DHT22;1703;51.964;7.642;2023-10-19T08:13:33;13.60;99.90
3380;DHT22;1703;51.964;7.642;2023-10-19T08:16:00;13.60;99.90
3380;DHT22;1703;51.964;7.642;2023-10-19T08:18:27;13.70;99.90
3380;DHT22;1703;51.964;7.642;2023-10-19T08:20:56;13.70;99.90
3380;DHT22;1703;51.964;7.642;2023-10-19T08:23:23;13.70;99.90
3380;DHT22;1703;51.964;7.642;2023-10-19T08:25:53;13.70;99.90
3380;DHT22;1703;51.964;7.642;2023-10-19T08:28:21;13.70;99.90
3380;DHT22;1703;51.964;7.642;2023-10-19T08:30:48;13.80;99.90
3380;DHT22;1703;51.964;7.642;2023-10-19T08:33:23;13.80;99.90
3380;DHT22;1703;51.964;7.642;2023-10-19T08:35:51;13.90;99.90
3380;DHT22;1703;51.964;7.642;2023-10-19T08:38:19;13.90;99.90
3380;DHT22;1703;51.964;7.642;2023-10-19T08:40:48;14.00;99.90
3380;DHT22;1703;51.964;7.642;2023-10-19T08:43:16;14.10;99.90
3380;DHT22;1703;51.964;7.642;2023-10-19T08:45:46;14.20;99.90
3380;DHT22;1703;51.964;7.642;2023-10-19T08:48:13;14.20;99.90
3380;DHT22;1703;51.964;7.642;2023-10-19T08:50:41;14.30;99.90
3380;DHT22;1703;51.964;7.642;2023-10-19T08:53:09;14.30;99.90
3380;DHT22;1703;51.964;7.642;2023-10-19T08:55:39;14.40;99.90
3380;DHT22;1703;51.964;7.642;2023-10-19T08:58:06;14.40;99.90
3380;DHT22;1703;51.964;7.642;2023-10-19T09:00:46;14.40;99.90
3380;DHT22;1703;51.964;7.642;2023-10-19T09:03:14;14.50;99.90
3380;DHT22;1703;51.964;7.642;2023-10-19T09:05:43;14.50;99.90
3380;DHT22;1703;51.964;7.642;2023-10-19T09:08:14;14.50;99.90
3380;DHT22;1703;51.964;7.642;2023-10-19T09:10:43;14.60;99.90
3380;DHT22;1703;51.964;7.642;2023-10-19T09:13:12;14.60;99.90
3380;DHT22;1703;51.964;7.642;2023-10-19T09:15:41;14.70;99.90
3380;DHT22;1703;51.964;7.642;2023-10-19T09:18:17;14.80;99.90
3380;DHT22;1703;51.964;7.642;2023-10-19T09:20:46;14.80;99.90
3380;DHT22;1703;51.964;7.642;2023-10-19T09:23:23;14.90;99.90
3380;DHT22;1703;51.964;7.642;2023-10-19T09:25:51;14.90;99.90
3380;DHT22;1703;51.964;7.642;2023-10-19T09:28:19;14.90;99.90
3380;DHT22;1703;51.964;7.642;2023-10-19T09:30:48;14.90;99.90
3380;DHT22;1703;51.964;7.642;2023-10-19T09:33:17;15.10;99.90
3380;DHT22;1703;51.964;7.642;2023-10-19T09:35:45;15.10;99.90
3380;DHT22;1703;51.964;7.642;2023-10-19T09:38:14;15.20;99.90
3380;DHT22;1703;51.964;7.642;2023-10-19T09:40:41;15.20;99.90
3380;DHT22;1703;51.964;7.642;2023-10-19T09:43:15;15.20;99.90
3380;DHT22;1703;51.964;7.642;2023-10-19T09:45:42;15.30;99.90
3380;DHT22;1703;51.964;7.642;2023-10-19T09:48:17;15.30;99.90
3380;DHT22;1703;51.964;7.642;2023-10-19T09:50:46;15.40;99.90
3380;DHT22;1703;51.964;7.642;2023-10-19T09:53:21;15.40;99.90
3380;DHT22;1703;51.964;7.642;2023-10-19T09:55:50;15.50;99.90
3380;DHT22;1703;51.964;7.642;2023-10-19T09:58:23;15.60;99.90
3380;DHT22;1703;51.964;7.642;2023-10-19T10:00:51;15.60;99.90
3380;DHT22;1703;51.964;7.642;2023-10-19T10:03:45;15.50;99.90
3380;DHT22;1703;51.964;7.642;2023-10-19T10:06:13;15.60;99.90
3380;DHT22;1703;51.964;7.642;2023-10-19T10:08:42;15.50;99.90
3380;DHT22;1703;51.964;7.642;2023-10-19T10:11:23;15.60;99.90
3380;DHT22;1703;51.964;7.642;2023-10-19T10:13:52;15.60;99.90
3380;DHT22;1703;51.964;7.642;2023-10-19T10:16:22;15.70;99.90
3380;DHT22;1703;51.964;7.642;2023-10-19T10:18:53;15.70;99.90
3380;DHT22;1703;51.964;7.642;2023-10-19T10:21:21;15.80;99.90
3380;DHT22;1703;51.964;7.642;2023-10-19T10:23:51;15.80;99.90
3380;DHT22;1703;51.964;7.642;2023-10-19T10:26:20;15.80;99.90
3380;DHT22;1703;51.964;7.642;2023-10-19T10:29:08;15.90;99.90
3380;DHT22;1703;51.964;7.642;2023-10-19T10:31:41;15.90;99.90
3380;DHT22;1703;51.964;7.642;2023-10-19T10:34:10;16.00;99.90
3380;DHT22;1703;51.964;7.642;2023-10-19T10:36:59;16.00;99.90
3380;DHT22;1703;51.964;7.642;2023-10-19T10:39:28;16.10;99.90
3380;DHT22;1703;51.964;7.642;2023-10-19T10:41:56;16.10;99.90
3380;DHT22;1703;51.964;7.642;2023-10-19T10:44:36;16.30;99.90
3380;DHT22;1703;51.964;7.642;2023-10-19T10:47:04;16.30;99.90
3380;DHT22;1703;51.964;7.642;2023-10-19T10:49:45;16.40;99.90
3380;DHT22;1703;51.964;7.642;2023-10-19T10:52:12;16.40;99.90
3380;DHT22;1703;51.964;7.642;2023-10-19T10:54:39;16.50;99.90
3380;DHT22;1703;51.964;7.642;2023-10-19T10:57:06;16.60;99.90
3380;DHT22;1703;51.964;7.642;2023-10-19T10:59:33;16.60;99.90
3380;DHT22;1703;51.964;7.642;2023-10-19T11:02:00;16.70;99.90
3380;DHT22;1703;51.964;7.642;2023-10-19T11:04:27;16.80;99.90
3380;DHT22;1703;51.964;7.642;2023-10-19T11:06:55;16.90;99.90
3380;DHT22;1703;51.964;7.642;2023-10-19T11:09:22;16.80;99.90
3380;DHT22;1703;51.964;7.642;2023-10-19T11:11:49;16.80;99.90
3380;DHT22;1703;51.964;7.642;2023-10-19T11:14:17;16.80;99.90
3380;DHT22;1703;51.964;7.642;2023-10-19T11:16:44;16.80;99.90
3380;DHT22;1703;51.964;7.642;2023-10-19T11:19:11;16.80;99.90
3380;DHT22;1703;51.964;7.642;2023-10-19T11:21:38;16.90;99.90
3380;DHT22;1703;51.964;7.642;2023-10-19T11:24:07;16.90;99.90
3380;DHT22;1703;51.964;7.642;2023-10-19T11:26:39;17.00;99.90
3380;DHT22;1703;51.964;7.642;2023-10-19T11:29:06;17.10;99.90
3380;DHT22;1703;51.964;7.642;2023-10-19T11:31:35;17.30;99.90
3380;DHT22;1703;51.964;7.642;2023-10-19T11:34:05;17.40;99.90
3380;DHT22;1703;51.964;7.642;2023-10-19T11:36:34;17.40;99.90
3380;DHT22;1703;51.964;7.642;2023-10-19T11:39:01;17.50;99.90
3380;DHT22;1703;51.964;7.642;2023-10-19T11:41:31;17.50;99.90
3380;DHT22;1703;51.964;7.642;2023-10-19T11:43:58;17.60;99.90
3380;DHT22;1703;51.964;7.642;2023-10-19T11:46:26;17.60;99.90
3380;DHT22;1703;51.964;7.642;2023-10-19T11:48:55;17.70;99.90
3380;DHT22;1703;51.964;7.642;2023-10-19T11:51:21;17.70;99.90
3380;DHT22;1703;51.964;7.642;2023-10-19T11:53:48;17.70;99.90
3380;DHT22;1703;51.964;7.642;2023-10-19T11:56:16;17.70;99.90
3380;DHT22;1703;51.964;7.642;2023-10-19T11:58:44;17.70;99.90
3380;DHT22;1703;51.964;7.642;2023-10-19T12:01:12;17.70;99.90
3380;DHT22;1703;51.964;7.642;2023-10-19T12:03:40;17.80;99.90
3380;DHT22;1703;51.964;7.642;2023-10-19T12:06:07;17.80;99.90
3380;DHT22;1703;51.964;7.642;2023-10-19T12:08:36;17.80;99.90
3380;DHT22;1703;51.964;7.642;2023-10-19T12:11:04;17.90;99.90
3380;DHT22;1703;51.964;7.642;2023-10-19T12:13:40;17.90;99.90
3380;DHT22;1703;51.964;7.642;2023-10-19T12:16:10;18.00;99.90
3380;DHT22;1703;51.964;7.642;2023-10-19T12:18:38;18.00;99.90
3380;DHT22;1703;51.964;7.642;2023-10-19T12:21:05;18.00;99.90
3380;DHT22;1703;51.964;7.642;2023-10-19T12:23:34;18.00;99.90
3380;DHT22;1703;51.964;7.642;2023-10-19T12:26:01;17.90;99.90
3380;DHT22;1703;51.964;7.642;2023-10-19T12:28:30;17.80;99.90
3380;DHT22;1703;51.964;7.642;2023-10-19T12:30:57;17.90;99.90
3380;DHT22;1703;51.964;7.642;2023-10-19T12:33:25;17.80;99.90
3380;DHT22;1703;51.964;7.642;2023-10-19T12:35:52;17.80;99.90
3380;DHT22;1703;51.964;7.642;2023-10-19T12:38:23;17.90;99.90
3380;DHT22;1703;51.964;7.642;2023-10-19T12:40:51;17.90;99.90
3380;DHT22;1703;51.964;7.642;2023-10-19T12:43:18;17.90;99.90
3380;DHT22;1703;51.964;7.642;2023-10-19T12:45:45;17.90;99.90
3380;DHT22;1703;51.964;7.642;2023-10-19T12:48:16;18.20;99.90
3380;DHT22;1703;51.964;7.642;2023-10-19T12:50:45;18.40;99.90
3380;DHT22;1703;51.964;7.642;2023-10-19T12:53:12;18.40;99.90
3380;DHT22;1703;51.964;7.642;2023-10-19T12:55:39;18.40;99.90
3380;DHT22;1703;51.964;7.642;2023-10-19T12:58:09;18.40;99.90
3380;DHT22;1703;51.964;7.642;2023-10-19T13:00:37;18.30;99.90
3380;DHT22;1703;51.964;7.642;2023-10-19T13:03:09;18.30;99.90
3380;DHT22;1703;51.964;7.642;2023-10-19T13:05:39;18.20;99.90
3380;DHT22;1703;51.964;7.642;2023-10-19T13:08:08;18.10;99.90
3380;DHT22;1703;51.964;7.642;2023-10-19T13:10:39;18.00;99.90
3380;DHT22;1703;51.964;7.642;2023-10-19T13:13:09;18.20;99.90
3380;DHT22;1703;51.964;7.642;2023-10-19T13:15:38;18.20;99.90
3380;DHT22;1703;51.964;7.642;2023-10-19T13:18:07;18.20;99.90
3380;DHT22;1703;51.964;7.642;2023-10-19T13:20:35;18.20;99.90
3380;DHT22;1703;51.964;7.642;2023-10-19T13:23:04;18.20;99.90
3380;DHT22;1703;51.964;7.642;2023-10-19T13:25:34;18.20;99.90
3380;DHT22;1703;51.964;7.642;2023-10-19T13:28:12;18.30;99.90
3380;DHT22;1703;51.964;7.642;2023-10-19T13:30:41;18.10;99.90
3380;DHT22;1703;51.964;7.642;2023-10-19T13:33:09;18.00;99.90
3380;DHT22;1703;51.964;7.642;2023-10-19T13:35:37;17.90;99.90
3380;DHT22;1703;51.964;7.642;2023-10-19T13:38:05;17.90;99.90
3380;DHT22;1703;51.964;7.642;2023-10-19T13:40:34;17.90;99.90
3380;DHT22;1703;51.964;7.642;2023-10-19T13:43:02;17.80;99.90
3380;DHT22;1703;51.964;7.642;2023-10-19T13:45:32;17.80;99.90
3380;DHT22;1703;51.964;7.642;2023-10-19T13:48:00;17.70;99.90
3380;DHT22;1703;51.964;7.642;2023-10-19T13:50:28;17.70;99.90
3380;DHT22;1703;51.964;7.642;2023-10-19T13:52:56;17.70;99.90
3380;DHT22;1703;51.964;7.642;2023-10-19T13:55:23;17.60;99.90
3380;DHT22;1703;51.964;7.642;2023-10-19T13:57:51;17.50;99.90
3380;DHT22;1703;51.964;7.642;2023-10-19T14:00:19;17.50;99.90
3380;DHT22;1703;51.964;7.642;2023-10-19T14:02:49;17.60;99.90
3380;DHT22;1703;51.964;7.642;2023-10-19T14:05:17;17.50;99.90
3380;DHT22;1703;51.964;7.642;2023-10-19T14:07:44;17.50;99.90
3380;DHT22;1703;51.964;7.642;2023-10-19T14:10:12;17.50;99.90
3380;DHT22;1703;51.964;7.642;2023-10-19T14:12:39;17.40;99.90
3380;DHT22;1703;51.964;7.642;2023-10-19T14:15:12;17.40;99.90
3380;DHT22;1703;51.964;7.642;2023-10-19T14:17:40;17.40;99.90
3380;DHT22;1703;51.964;7.642;2023-10-19T14:20:07;17.40;99.90
3380;DHT22;1703;51.964;7.642;2023-10-19T14:22:39;17.40;99.90
3380;DHT22;1703;51.964;7.642;2023-10-19T14:25:07;17.50;99.90
3380;DHT22;1703;51.964;7.642;2023-10-19T14:27:38;17.60;99.90
3380;DHT22;1703;51.964;7.642;2023-10-19T14:30:06;17.60;99.90
3380;DHT22;1703;51.964;7.642;2023-10-19T14:32:37;17.60;99.90
3380;DHT22;1703;51.964;7.642;2023-10-19T14:35:04;17.50;99.90
3380;DHT22;1703;51.964;7.642;2023-10-19T14:37:35;17.50;99.90
3380;DHT22;1703;51.964;7.642;2023-10-19T14:40:06;17.50;99.90
3380;DHT22;1703;51.964;7.642;2023-10-19T14:42:35;17.50;99.90
3380;DHT22;1703;51.964;7.642;2023-10-19T14:45:05;17.60;99.90
3380;DHT22;1703;51.964;7.642;2023-10-19T14:47:35;17.50;99.90
3380;DHT22;1703;51.964;7.642;2023-10-19T14:50:04;17.50;99.90
3380;DHT22;1703;51.964;7.642;2023-10-19T14:52:31;17.40;99.90
3380;DHT22;1703;51.964;7.642;2023-10-19T14:54:58;17.30;99.90
3380;DHT22;1703;51.964;7.642;2023-10-19T14:57:26;17.30;99.90
3380;DHT22;1703;51.964;7.642;2023-10-19T14:59:53;17.30;99.90
3380;DHT22;1703;51.964;7.642;2023-10-19T15:02:20;17.40;99.90
3380;DHT22;1703;51.964;7.642;2023-10-19T15:04:49;17.40;99.90
3380;DHT22;1703;51.964;7.642;2023-10-19T15:07:18;17.40;99.90
3380;DHT22;1703;51.964;7.642;2023-10-19T15:09:46;17.40;99.90
3380;DHT22;1703;51.964;7.642;2023-10-19T15:12:13;17.40;99.90
3380;DHT22;1703;51.964;7.642;2023-10-19T15:14:41;17.50;99.90
3380;DHT22;1703;51.964;7.642;2023-10-19T15:17:09;17.40;99.90
3380;DHT22;1703;51.964;7.642;2023-10-19T15:19:37;17.40;99.90
3380;DHT22;1703;51.964;7.642;2023-10-19T15:22:04;17.40;99.90
3380;DHT22;1703;51.964;7.642;2023-10-19T15:24:33;17.40;99.90
3380;DHT22;1703;51.964;7.642;2023-10-19T15:27:01;17.40;99.90
3380;DHT22;1703;51.964;7.642;2023-10-19T15:29:28;17.30;99.90
3380;DHT22;1703;51.964;7.642;2023-10-19T15:31:56;17.30;99.90
3380;DHT22;1703;51.964;7.642;2023-10-19T15:34:23;17.30;99.90
3380;DHT22;1703;51.964;7.642;2023-10-19T15:36:51;17.30;99.90
3380;DHT22;1703;51.964;7.642;2023-10-19T15:39:18;17.20;99.90
3380;DHT22;1703;51.964;7.642;2023-10-19T15:41:46;17.20;99.90
3380;DHT22;1703;51.964;7.642;2023-10-19T15:44:13;17.20;99.90
3380;DHT22;1703;51.964;7.642;2023-10-19T15:46:40;17.20;99.90
3380;DHT22;1703;51.964;7.642;2023-10-19T15:49:10;17.20;99.90
3380;DHT22;1703;51.964;7.642;2023-10-19T15:51:38;17.10;99.90
3380;DHT22;1703;51.964;7.642;2023-10-19T15:54:06;17.10;99.90
3380;DHT22;1703;51.964;7.642;2023-10-19T15:56:33;17.10;99.90
3380;DHT22;1703;51.964;7.642;2023-10-19T15:59:01;17.10;99.90
3380;DHT22;1703;51.964;7.642;2023-10-19T16:01:28;17.10;99.90
3380;DHT22;1703;51.964;7.642;2023-10-19T16:03:56;17.10;99.90
3380;DHT22;1703;51.964;7.642;2023-10-19T16:06:23;17.10;99.90
3380;DHT22;1703;51.964;7.642;2023-10-19T16:08:50;17.10;99.90
3380;DHT22;1703;51.964;7.642;2023-10-19T16:11:18;17.10;99.90
3380;DHT22;1703;51.964;7.642;2023-10-19T16:13:45;17.00;99.90